createdAt,value
2023-11-12T00:00:43.581Z,7.74
2023-11-12T00:03:45.348Z,7.72
2023-11-12T00:06:47.136Z,7.69
2023-11-12T00:09:50.195Z,7.76
2023-11-12T00:12:51.954Z,7.76
2023-11-12T00:15:54.019Z,7.78
2023-11-12T00:18:57.059Z,7.79
2023-11-12T00:21:58.986Z,7.76
2023-11-12T00:25:01.264Z,7.70
2023-11-12T00:28:03.233Z,7.64
2023-11-12T00:31:04.846Z,7.63
2023-11-12T00:34:07.072Z,7.61
2023-11-12T00:37:08.983Z,7.61
2023-11-12T00:40:11.191Z,7.51
2023-11-12T00:43:12.937Z,7.57
2023-11-12T00:46:14.999Z,7.44
2023-11-12T00:49:16.913Z,7.41
2023-11-12T00:52:18.885Z,7.54
2023-11-12T00:55:22.129Z,7.52
2023-11-12T00:58:23.771Z,7.46
2023-11-12T01:01:25.435Z,7.55
2023-11-12T01:04:27.486Z,7.50
2023-11-12T01:07:29.690Z,7.50
2023-11-12T01:10:31.422Z,7.36
2023-11-12T01:13:33.018Z,7.41
2023-11-12T01:16:34.915Z,7.35
2023-11-12T01:19:36.910Z,7.35
2023-11-12T01:22:39.183Z,7.37
2023-11-12T01:25:42.271Z,7.40
2023-11-12T01:28:43.947Z,7.43
2023-11-12T01:31:45.634Z,7.45
2023-11-12T01:34:48.555Z,7.41
2023-11-12T01:37:50.466Z,7.45
2023-11-12T01:40:52.374Z,7.41
2023-11-12T01:43:54.544Z,7.33
2023-11-12T01:46:56.456Z,7.35
2023-11-12T01:49:58.785Z,7.36
2023-11-12T01:53:01.254Z,7.26
2023-11-12T01:56:08.518Z,7.26
2023-11-12T01:59:10.299Z,7.22
2023-11-12T02:02:13.500Z,7.19
2023-11-12T02:05:15.496Z,7.16
2023-11-12T02:08:17.973Z,7.18
2023-11-12T02:11:19.749Z,7.12
2023-11-12T02:14:22.926Z,7.12
2023-11-12T02:17:24.942Z,7.08
2023-11-12T02:20:27.343Z,7.05
2023-11-12T02:23:29.431Z,7.06
2023-11-12T02:26:31.353Z,7.06
2023-11-12T02:29:33.341Z,7.10
2023-11-12T02:32:37.583Z,7.06
2023-11-12T02:35:39.548Z,7.11
2023-11-12T02:38:41.401Z,7.13
2023-11-12T02:41:43.322Z,7.05
2023-11-12T02:44:45.257Z,7.09
2023-11-12T02:47:47.324Z,6.86
2023-11-12T02:50:49.194Z,7.02
2023-11-12T02:53:51.247Z,6.98
2023-11-12T02:56:53.223Z,6.97
2023-11-12T02:59:55.662Z,6.97
2023-11-12T03:02:59.637Z,6.96
2023-11-12T03:06:01.795Z,6.95
2023-11-12T03:09:03.761Z,6.85
2023-11-12T03:12:05.975Z,6.86
2023-11-12T03:15:09.168Z,6.70
2023-11-12T03:18:11.183Z,6.80
2023-11-12T03:21:13.115Z,6.77
2023-11-12T03:24:14.731Z,6.77
2023-11-12T03:27:17.713Z,6.80
2023-11-12T03:30:19.729Z,6.77
2023-11-12T03:33:22.497Z,6.73
2023-11-12T03:36:24.283Z,6.70
2023-11-12T03:39:26.394Z,6.77
2023-11-12T03:42:33.261Z,6.80
2023-11-12T03:45:35.307Z,6.78
2023-11-12T03:48:37.214Z,6.75
2023-11-12T03:51:39.256Z,6.67
2023-11-12T03:54:43.440Z,6.77
2023-11-12T03:57:45.765Z,6.75
2023-11-12T04:00:50.097Z,6.66
2023-11-12T04:03:52.778Z,6.59
2023-11-12T04:06:54.582Z,6.59
2023-11-12T04:09:56.823Z,6.60
2023-11-12T04:12:58.828Z,6.64
2023-11-12T04:16:00.793Z,6.59
2023-11-12T04:19:04.060Z,6.60
2023-11-12T04:22:06.017Z,6.58
2023-11-12T04:25:08.532Z,6.54
2023-11-12T04:28:10.425Z,6.55
2023-11-12T04:31:12.122Z,6.49
2023-11-12T04:34:14.180Z,6.62
2023-11-12T04:37:16.046Z,6.56
2023-11-12T04:40:18.452Z,6.60
2023-11-12T04:43:21.894Z,6.46
2023-11-12T04:46:23.726Z,6.43
2023-11-12T04:49:25.773Z,6.49
2023-11-12T04:52:27.615Z,6.49
2023-11-12T04:55:29.578Z,6.52
2023-11-12T04:58:31.456Z,6.46
2023-11-12T05:01:33.350Z,6.39
2023-11-12T05:04:35.350Z,6.46
2023-11-12T05:07:37.079Z,6.46
2023-11-12T05:10:45.080Z,6.55
2023-11-12T05:13:48.145Z,6.55
2023-11-12T05:16:50.113Z,6.51
2023-11-12T05:19:52.090Z,6.55
2023-11-12T05:22:54.332Z,6.62
2023-11-12T05:25:56.317Z,6.62
2023-11-12T05:28:58.258Z,6.63
2023-11-12T05:32:02.441Z,6.64
2023-11-12T05:35:05.067Z,6.57
2023-11-12T05:38:07.157Z,6.52
2023-11-12T05:41:08.888Z,6.50
2023-11-12T05:44:10.959Z,6.53
2023-11-12T05:47:12.839Z,6.64
2023-11-12T05:50:15.364Z,6.70
2023-11-12T05:53:17.348Z,6.62
2023-11-12T05:56:19.965Z,6.55
2023-11-12T05:59:21.896Z,6.48
2023-11-12T06:02:27.439Z,6.55
2023-11-12T06:05:29.288Z,6.52
2023-11-12T06:08:33.361Z,6.45
2023-11-12T06:11:38.794Z,6.46
2023-11-12T06:14:40.396Z,6.50
2023-11-12T06:17:42.699Z,6.54
2023-11-12T06:20:46.239Z,6.54
2023-11-12T06:23:47.965Z,6.51
2023-11-12T06:26:49.914Z,6.48
2023-11-12T06:29:53.329Z,6.49
2023-11-12T06:32:55.269Z,6.54
2023-11-12T06:35:57.283Z,6.65
2023-11-12T06:38:59.221Z,6.73
2023-11-12T06:42:00.938Z,6.70
2023-11-12T06:45:02.896Z,6.73
2023-11-12T06:48:04.677Z,6.76
2023-11-12T06:51:06.619Z,6.78
2023-11-12T06:54:08.892Z,6.83
2023-11-12T06:57:10.827Z,6.83
2023-11-12T07:00:14.404Z,6.89
2023-11-12T07:03:16.535Z,7.01
2023-11-12T07:06:18.878Z,7.04
2023-11-12T07:09:20.562Z,6.93
2023-11-12T07:12:24.985Z,7.00
2023-11-12T07:15:27.434Z,7.10
2023-11-12T07:18:30.945Z,7.13
2023-11-12T07:21:36.108Z,7.18
2023-11-12T07:24:38.185Z,7.14
2023-11-12T07:27:40.136Z,7.21
2023-11-12T07:30:42.007Z,7.29
2023-11-12T07:33:43.710Z,7.37
2023-11-12T07:36:46.607Z,7.38
2023-11-12T07:39:48.628Z,7.47
2023-11-12T07:42:50.252Z,7.48
2023-11-12T07:45:52.283Z,7.54
2023-11-12T07:48:54.285Z,7.59
2023-11-12T07:51:55.964Z,7.52
2023-11-12T07:54:58.064Z,7.58
2023-11-12T07:58:00.111Z,7.64
2023-11-12T08:01:05.357Z,7.79
2023-11-12T08:04:08.705Z,7.78
2023-11-12T08:07:10.633Z,7.80
2023-11-12T08:10:12.835Z,7.84
2023-11-12T08:13:14.605Z,7.90
2023-11-12T08:16:16.260Z,7.94
2023-11-12T08:19:18.103Z,8.01
2023-11-12T08:22:20.150Z,7.98
2023-11-12T08:25:21.760Z,8.14
2023-11-12T08:28:23.748Z,8.18
2023-11-12T08:31:25.693Z,8.26
2023-11-12T08:34:27.692Z,8.32
2023-11-12T08:37:29.610Z,8.33
2023-11-12T08:40:31.572Z,8.44
2023-11-12T08:43:33.386Z,8.44
2023-11-12T08:46:35.182Z,8.62
2023-11-12T08:49:37.378Z,8.85
2023-11-12T08:52:39.507Z,8.97
2023-11-12T08:55:41.586Z,9.03
2023-11-12T08:58:43.263Z,9.05
2023-11-12T09:01:45.257Z,8.98
2023-11-12T09:04:47.223Z,8.97
2023-11-12T09:07:49.229Z,8.93
2023-11-12T09:10:51.165Z,9.08
2023-11-12T09:13:52.745Z,8.90
2023-11-12T09:16:54.624Z,8.98
2023-11-12T09:19:56.317Z,9.20
2023-11-12T09:22:58.190Z,9.17
2023-11-12T09:25:59.841Z,9.33
2023-11-12T09:29:01.865Z,9.22
2023-11-12T09:32:05.175Z,9.36
2023-11-12T09:35:07.770Z,9.29
2023-11-12T09:38:09.841Z,9.33
2023-11-12T09:41:11.977Z,9.23
2023-11-12T09:44:18.278Z,9.36
2023-11-12T09:47:38.914Z,9.46
2023-11-12T09:50:44.642Z,9.62
2023-11-12T09:53:46.469Z,9.78
2023-11-12T09:56:51.209Z,9.80
2023-11-12T09:59:56.324Z,9.87
2023-11-12T10:02:58.473Z,9.83
2023-11-12T10:06:02.053Z,9.98
2023-11-12T10:09:05.168Z,10.00
2023-11-12T10:12:07.477Z,9.94
2023-11-12T10:15:09.144Z,9.93
2023-11-12T10:18:11.185Z,10.06
2023-11-12T10:21:13.159Z,10.15
2023-11-12T10:24:16.503Z,10.09
2023-11-12T10:27:18.152Z,10.21
2023-11-12T10:30:24.264Z,10.20
2023-11-12T10:33:26.840Z,10.29
2023-11-12T10:36:29.464Z,10.28
2023-11-12T10:39:42.722Z,10.42
2023-11-12T10:42:44.790Z,10.50
2023-11-12T10:45:47.456Z,10.48
2023-11-12T10:49:03.331Z,10.62
2023-11-12T10:52:05.788Z,10.61
2023-11-12T10:55:08.603Z,10.57
2023-11-12T10:58:10.956Z,10.61
2023-11-12T11:01:13.990Z,10.48
2023-11-12T11:04:17.393Z,10.46
2023-11-12T11:07:19.070Z,10.54
2023-11-12T11:10:21.057Z,10.54
2023-11-12T11:13:23.255Z,10.55
2023-11-12T11:16:47.355Z,10.60
2023-11-12T11:19:49.207Z,10.73
2023-11-12T11:22:50.920Z,10.76
2023-11-12T11:26:24.905Z,10.94
2023-11-12T11:29:26.979Z,17.74
2023-11-12T11:32:29.235Z,20.99
2023-11-12T11:35:32.190Z,17.40
2023-11-12T11:38:33.862Z,13.83
2023-11-12T11:41:36.725Z,12.73
2023-11-12T11:44:38.241Z,12.06
2023-11-12T11:48:05.494Z,11.69
2023-11-12T11:51:28.996Z,11.55
2023-11-12T11:54:30.901Z,11.43
2023-11-12T11:57:33.112Z,11.13
2023-11-12T12:00:35.041Z,10.94
2023-11-12T12:03:36.827Z,10.98
2023-11-12T12:10:02.305Z,10.94
2023-11-12T12:13:07.261Z,16.57
2023-11-12T12:16:09.262Z,19.28
2023-11-12T12:19:21.870Z,14.68
2023-11-12T12:22:29.226Z,12.92
2023-11-12T12:25:35.911Z,11.94
2023-11-12T12:28:38.889Z,12.04
2023-11-12T12:31:50.686Z,11.44
2023-11-12T12:34:53.790Z,11.00
2023-11-12T12:38:04.682Z,10.99
2023-11-12T12:41:06.458Z,10.91
2023-11-12T12:44:21.530Z,10.81
2023-11-12T12:47:40.046Z,10.71
2023-11-12T12:50:42.047Z,10.73
2023-11-12T12:53:45.120Z,10.76
2023-11-12T12:56:47.767Z,10.84
2023-11-12T12:59:49.732Z,10.71
2023-11-12T13:02:51.795Z,10.75
2023-11-12T13:05:56.953Z,10.67
2023-11-12T13:08:58.597Z,10.70
2023-11-12T13:12:06.777Z,10.62
2023-11-12T13:15:08.891Z,10.58
2023-11-12T13:18:10.607Z,10.59
2023-11-12T13:21:22.859Z,10.65
2023-11-12T13:24:24.638Z,10.61
2023-11-12T13:27:27.387Z,10.57
2023-11-12T13:30:29.565Z,10.57
2023-11-12T13:33:31.572Z,10.56
2023-11-12T13:36:34.761Z,10.59
2023-11-12T13:39:36.497Z,10.66
2023-11-12T13:42:38.432Z,10.55
2023-11-12T13:45:40.242Z,10.57
2023-11-12T13:48:42.296Z,10.59
2023-11-12T13:51:44.420Z,10.48
2023-11-12T13:54:46.067Z,10.47
2023-11-12T13:57:48.034Z,10.39
2023-11-12T14:00:50.202Z,10.29
2023-11-12T14:03:52.375Z,10.32
2023-11-12T14:06:54.253Z,10.34
2023-11-12T14:09:56.224Z,10.34
2023-11-12T14:12:58.276Z,10.28
2023-11-12T14:16:01.171Z,10.29
2023-11-12T14:19:04.429Z,10.27
2023-11-12T14:22:06.573Z,10.20
2023-11-12T14:25:08.490Z,10.27
2023-11-12T14:28:10.232Z,10.22
2023-11-12T14:31:12.096Z,10.22
2023-11-12T14:34:14.644Z,10.22
2023-11-12T14:37:18.137Z,10.22
2023-11-12T14:40:19.910Z,10.16
2023-11-12T14:43:21.618Z,10.16
2023-11-12T14:46:23.317Z,10.12
2023-11-12T14:49:26.627Z,10.18
2023-11-12T14:52:28.420Z,10.16
2023-11-12T14:55:30.570Z,10.06
2023-11-12T14:58:32.593Z,10.07
2023-11-12T15:01:35.069Z,10.02
2023-11-12T15:04:36.912Z,10.02
2023-11-12T15:07:39.089Z,9.96
2023-11-12T15:10:41.016Z,9.92
2023-11-12T15:13:43.549Z,9.89
2023-11-12T15:16:45.529Z,9.84
2023-11-12T15:19:47.560Z,9.83
2023-11-12T15:22:49.467Z,9.88
2023-11-12T15:25:51.171Z,9.77
2023-11-12T15:28:53.267Z,9.74
2023-11-12T15:31:55.478Z,9.74
2023-11-12T15:34:58.397Z,9.71
2023-11-12T15:38:00.341Z,9.64
2023-11-12T15:41:02.327Z,9.67
2023-11-12T15:44:04.821Z,9.60
2023-11-12T15:47:06.860Z,9.52
2023-11-12T15:50:09.523Z,9.43
2023-11-12T15:53:11.175Z,9.39
2023-11-12T15:56:13.119Z,9.35
2023-11-12T15:59:15.212Z,9.34
2023-11-12T16:02:17.503Z,9.35
2023-11-12T16:05:19.483Z,9.32
2023-11-12T16:08:21.713Z,9.28
2023-11-12T16:11:23.785Z,9.28
2023-11-12T16:14:25.757Z,9.26
2023-11-12T16:17:29.940Z,9.22
2023-11-12T16:20:32.173Z,9.13
2023-11-12T16:23:33.925Z,9.07
2023-11-12T16:26:35.590Z,9.04
2023-11-12T16:29:37.287Z,8.99
2023-11-12T16:32:39.074Z,8.94
2023-11-12T16:35:41.895Z,8.97
2023-11-12T16:38:46.642Z,8.87
2023-11-12T16:41:52.073Z,8.93
2023-11-12T16:44:53.820Z,8.92
2023-11-12T16:47:56.358Z,8.83
2023-11-12T16:50:58.892Z,8.81
2023-11-12T16:54:00.770Z,8.79
2023-11-12T16:57:03.404Z,8.77
2023-11-12T17:00:05.724Z,8.75
2023-11-12T17:03:07.841Z,8.79
2023-11-12T17:06:09.654Z,8.77
2023-11-12T17:09:11.643Z,8.74
2023-11-12T17:12:13.653Z,8.72
2023-11-12T17:15:15.399Z,8.67
2023-11-12T17:18:17.141Z,8.62
2023-11-12T17:21:19.140Z,8.60
2023-11-12T17:24:21.040Z,8.54
2023-11-12T17:27:23.263Z,8.56
2023-11-12T17:30:25.059Z,8.56
2023-11-12T17:33:26.984Z,8.48
2023-11-12T17:36:29.519Z,8.46
2023-11-12T17:39:31.378Z,8.40
2023-11-12T17:42:33.120Z,8.41
2023-11-12T17:45:35.254Z,8.37
2023-11-12T17:48:37.436Z,8.32
2023-11-12T17:51:39.497Z,8.23
2023-11-12T17:54:41.407Z,8.23
2023-11-12T17:57:43.198Z,8.23
2023-11-12T18:00:45.316Z,8.22
2023-11-12T18:03:47.126Z,8.17
2023-11-12T18:06:49.304Z,8.14
2023-11-12T18:09:51.477Z,8.18
2023-11-12T18:13:05.106Z,8.14
2023-11-12T18:16:08.039Z,8.13
2023-11-12T18:19:09.868Z,8.05
2023-11-12T18:22:12.068Z,8.04
2023-11-12T18:25:16.126Z,8.04
2023-11-12T18:28:19.097Z,8.02
2023-11-12T18:31:20.981Z,8.05
2023-11-12T18:34:23.323Z,8.02
2023-11-12T18:37:25.152Z,7.93
2023-11-12T18:40:26.904Z,7.86
2023-11-12T18:43:28.843Z,7.82
2023-11-12T18:46:30.607Z,7.76
2023-11-12T18:49:32.952Z,7.69
2023-11-12T18:52:34.666Z,7.59
2023-11-12T18:55:36.646Z,7.57
2023-11-12T18:58:38.646Z,7.56
2023-11-12T19:01:40.601Z,7.44
2023-11-12T19:04:44.665Z,7.45
2023-11-12T19:07:49.362Z,7.49
2023-11-12T19:10:51.109Z,7.50
2023-11-12T19:13:53.054Z,7.51
2023-11-12T19:16:54.978Z,7.46
2023-11-12T19:19:58.051Z,7.33
2023-11-12T19:22:59.976Z,7.31
2023-11-12T19:26:02.730Z,7.19
2023-11-12T19:29:05.442Z,7.20
2023-11-12T19:32:25.979Z,7.07
2023-11-12T19:35:27.763Z,7.25
2023-11-12T19:38:29.759Z,7.24
2023-11-12T19:41:36.170Z,7.14
2023-11-12T19:44:38.949Z,7.06
2023-11-12T19:47:40.712Z,6.92
2023-11-12T19:50:42.644Z,6.92
2023-11-12T19:53:44.371Z,6.93
2023-11-12T19:56:46.597Z,6.96
2023-11-12T19:59:48.634Z,7.01
2023-11-12T20:02:50.893Z,6.98
2023-11-12T20:05:52.876Z,6.97
2023-11-12T20:08:54.640Z,6.97
2023-11-12T20:11:56.424Z,6.96
2023-11-12T20:14:58.559Z,7.00
2023-11-12T20:18:00.621Z,6.94
2023-11-12T20:21:04.067Z,6.94
2023-11-12T20:24:07.581Z,6.93
2023-11-12T20:27:09.507Z,6.86
2023-11-12T20:30:11.830Z,6.90
2023-11-12T20:33:16.189Z,6.82
2023-11-12T20:36:19.282Z,6.78
2023-11-12T20:39:21.044Z,6.74
2023-11-12T20:42:23.627Z,6.74
2023-11-12T20:45:29.087Z,6.92
2023-11-12T20:48:31.038Z,6.97
2023-11-12T20:51:32.708Z,6.97
2023-11-12T20:54:35.503Z,7.02
2023-11-12T20:57:37.828Z,7.12
2023-11-12T21:00:39.612Z,7.09
2023-11-12T21:03:41.487Z,7.08
2023-11-12T21:06:43.647Z,7.00
2023-11-12T21:09:45.567Z,6.97
2023-11-12T21:12:47.929Z,6.83
2023-11-12T21:15:49.925Z,6.70
2023-11-12T21:18:51.739Z,6.81
2023-11-12T21:25:09.754Z,6.86
2023-11-12T21:28:11.770Z,6.84
2023-11-12T21:31:14.402Z,6.77
2023-11-12T21:34:16.728Z,6.74
2023-11-12T21:37:21.675Z,6.76
2023-11-12T21:40:23.447Z,6.61
2023-11-12T21:43:25.261Z,6.58
2023-11-12T21:46:27.018Z,6.60
2023-11-12T21:49:29.257Z,6.61
2023-11-12T21:52:31.044Z,6.62
2023-11-12T21:55:47.115Z,6.61
2023-11-12T21:58:48.789Z,6.74
2023-11-12T22:01:51.988Z,6.69
2023-11-12T22:04:53.907Z,6.64
2023-11-12T22:07:56.353Z,6.76
2023-11-12T22:10:58.279Z,6.76
2023-11-12T22:14:00.296Z,6.81
2023-11-12T22:17:01.998Z,6.87
2023-11-12T22:20:06.693Z,6.81
2023-11-12T22:23:08.933Z,6.77
2023-11-12T22:26:10.912Z,6.67
2023-11-12T22:29:14.731Z,6.61
2023-11-12T22:32:18.270Z,6.61
2023-11-12T22:35:20.486Z,6.56
2023-11-12T22:38:22.418Z,6.71
2023-11-12T22:41:24.150Z,6.66
2023-11-12T22:44:28.643Z,6.78
2023-11-12T22:47:30.678Z,6.67
2023-11-12T22:50:32.396Z,6.48
2023-11-12T22:53:34.395Z,6.54
2023-11-12T22:56:37.651Z,6.64
2023-11-12T22:59:39.549Z,6.56
2023-11-12T23:02:42.317Z,6.66
2023-11-12T23:05:46.204Z,6.73
2023-11-12T23:08:47.954Z,6.71
2023-11-12T23:11:49.894Z,6.74
2023-11-12T23:14:52.855Z,6.71
2023-11-12T23:17:54.706Z,6.72
2023-11-12T23:21:03.317Z,6.64
2023-11-12T23:24:11.058Z,6.62
2023-11-12T23:27:13.978Z,6.70
2023-11-12T23:30:16.180Z,6.74
2023-11-12T23:33:18.196Z,6.70
2023-11-12T23:36:20.275Z,6.70
2023-11-12T23:39:22.221Z,6.67
2023-11-12T23:42:23.948Z,6.65
2023-11-12T23:45:25.637Z,6.75
2023-11-12T23:48:27.575Z,6.72
2023-11-12T23:51:29.287Z,6.79
2023-11-12T23:54:31.271Z,6.84
2023-11-12T23:57:34.736Z,6.84
